Thunder radar more information blitzortung!


Radar de pluja more information rain snow radar


Visita la nostra xarxa de llocs de meteo:

Template documentation
and downloads

And another site



No particular awareness of the weather is required.    There are no Weather-warnings

Pagina Historial Weather Underground text

Diari Resum May 8, 2017 Unitats:  Imperial    Mètric   Tant
« Previous Dia
SegĂźent Dia »
Diari Setmana Mensual Anual Personalitzada
  Maxima: Minima: Media:
Temperatura: 74.7 °F 51.3 °F 64 °F
Punt de rosada: 55.4 °F 45.3 °F 50.4 °F
Humitat: 85 % 48 % 62 %
Wind Speed: 12.5 mph 0 mph 3.9 mph
RĂ fegues de vent: 12.5 mph - -
Vent:- - SSE
Pression baro: 30.1 in 30 in -
Precipitacions: 0 in    
Historical Graphs
 
 
Dades de taula per May 8, 2017
Temps Temperatura Punt de rosada Pression baro Vent Wind Speed RĂ fegues de vent Humitat Rainfall Rate (Hourly)
00:00 57 °F 49.3 °F 30.1 in NE 2.6 mph 2.6 mph 75 % 0 in
00:05 57 °F 49.3 °F 30.1 in NE 3.5 mph 3.5 mph 75 % 0 in
00:10 51.8 °F 45.9 °F 30.1 in SW 1 mph 2 mph 80 % 0 in
00:20 51.6 °F 46 °F 30.1 in Calm   1 mph 81 % 0 in
00:30 51.6 °F 46.2 °F 30.1 in Calm     82 % 0 in
00:40 51.6 °F 46.2 °F 30.1 in WNW 1 mph 1 mph 82 % 0 in
00:50 51.4 °F 46 °F 30.1 in Calm     82 % 0 in
01:00 51.4 °F 46.4 °F 30.1 in Calm   2 mph 83 % 0 in
01:10 51.3 °F 46 °F 30.1 in Calm   1 mph 82 % 0 in
01:20 51.3 °F 46 °F 30.1 in SW 1 mph 1 mph 82 % 0 in
01:30 51.4 °F 46.4 °F 30.1 in Calm   1 mph 83 % 0 in
01:40 51.4 °F 46.4 °F 30.1 in Calm     83 % 0 in
01:50 51.4 °F 46.8 °F 30.1 in Calm     84 % 0 in
02:00 51.6 °F 46.6 °F 30.1 in Calm     83 % 0 in
02:10 51.8 °F 47.1 °F 30.1 in Calm     84 % 0 in
02:20 52 °F 47.3 °F 30.1 in SW 1 mph 1 mph 84 % 0 in
02:30 52.3 °F 47.7 °F 30.1 in Calm   1 mph 84 % 0 in
02:40 53.6 °F 49.3 °F 30.1 in Calm     85 % 0 in
02:50 54.1 °F 49.1 °F 30.1 in Calm     83 % 0 in
03:00 55.4 °F 50.4 °F 30.1 in ESE 1 mph 1 mph 83 % 0 in
03:10 55.2 °F 49.5 °F 30.1 in SSE 1 mph 2 mph 81 % 0 in
03:20 55.6 °F 49.5 °F 30.1 in South 1 mph 2 mph 80 % 0 in
03:30 55.6 °F 49.5 °F 30.1 in SSW 2 mph 2 mph 80 % 0 in
03:40 56.1 °F 50 °F 30.1 in WSW 1 mph 2 mph 80 % 0 in
03:50 57.4 °F 50.9 °F 30.1 in North 1 mph 3 mph 79 % 0 in
04:00 57.4 °F 50.5 °F 30.1 in NE 3 mph 4 mph 78 % 0 in
04:10 57.9 °F 50.7 °F 30.1 in NE 2 mph 5 mph 77 % 0 in
04:20 57.7 °F 49.8 °F 30.1 in NE 6 mph 6 mph 75 % 0 in
04:30 57.9 °F 50 °F 30.1 in ENE 5 mph 6 mph 75 % 0 in
04:40 57.7 °F 49.8 °F 30.1 in NE 3 mph 8 mph 75 % 0 in
04:50 58.8 °F 50.5 °F 30.1 in ENE 3 mph 4 mph 74 % 0 in
05:00 59.9 °F 51.3 °F 30.1 in NE 3 mph 4 mph 73 % 0 in
05:10 59.9 °F 51.3 °F 30.1 in NE 5 mph 5 mph 73 % 0 in
10:16 60.3 °F 50.7 °F 30.1 in NE 4.6 mph 4.6 mph 71 % 0 in
10:21 60.1 °F 50.4 °F 30.1 in NNE 4.6 mph 4.6 mph 70 % 0 in
10:26 61.5 °F 52 °F 30.1 in West 3.5 mph 3.5 mph 71 % 0 in
10:31 62.6 °F 52.3 °F 30.1 in NE 3.6 mph 3.6 mph 69 % 0 in
10:36 63 °F 52.2 °F 30.1 in NW 3.5 mph 3.5 mph 68 % 0 in
10:41 63.1 °F 52 °F 30.1 in ENE 3.8 mph 3.8 mph 67 % 0 in
10:46 62.8 °F 51.6 °F 30.1 in North 4.6 mph 4.6 mph 67 % 0 in
10:47 62.8 °F 51.6 °F 30.1 in WNW 4.6 mph 4.6 mph 67 % 0 in
10:52 63.1 °F 51.6 °F 30.1 in NNE 4.7 mph 4.7 mph 66 % 0 in
10:57 63.3 °F 51.8 °F 30.1 in NW 3.5 mph 3.5 mph 66 % 0 in
11:02 64 °F 52 °F 30.1 in NW 3.5 mph 3.5 mph 65 % 0 in
11:07 64.9 °F 53.2 °F 30.1 in NW 2.3 mph 2.3 mph 66 % 0 in
11:12 64.9 °F 52 °F 30.1 in East 6.9 mph 6.9 mph 63 % 0 in
11:17 64.9 °F 52.5 °F 30.1 in ENE 4.6 mph 4.6 mph 64 % 0 in
11:22 65.5 °F 52.5 °F 30.1 in ENE 4.6 mph 4.6 mph 63 % 0 in
11:27 65.8 °F 52.9 °F 30.1 in ENE 4.6 mph 4.6 mph 63 % 0 in
11:32 65.7 °F 52.3 °F 30.1 in ESE 4.6 mph 4.6 mph 62 % 0 in
11:37 66.2 °F 52.3 °F 30.1 in NE 3.5 mph 3.5 mph 61 % 0 in
11:42 66.7 °F 52.9 °F 30.1 in SSW 3.5 mph 3.5 mph 61 % 0 in
11:47 68.4 °F 54 °F 30.1 in SW 3.5 mph 3.5 mph 60 % 0 in
11:52 67.8 °F 52.5 °F 30.1 in SW 2.3 mph 2.3 mph 58 % 0 in
11:57 68.4 °F 53.4 °F 30.1 in West 3.3 mph 3.3 mph 59 % 0 in
12:02 68.9 °F 53.4 °F 30.1 in SW 3.5 mph 3.5 mph 58 % 0 in
12:07 69.8 °F 54 °F 30.1 in WSW 2.3 mph 2.4 mph 57 % 0 in
12:12 69.1 °F 53.2 °F 30.1 in SW 4.6 mph 4.6 mph 57 % 0 in
12:17 70 °F 54 °F 30.1 in NNW 2.6 mph 2.6 mph 57 % 0 in
12:22 70.7 °F 53.8 °F 30.1 in ENE 3.3 mph 3.3 mph 55 % 0 in
12:23 70.3 °F 53.4 °F 30.1 in SE 4.9 mph 4.9 mph 55 % 0 in
12:28 69.6 °F 52.7 °F 30.1 in NE 3.5 mph 3.5 mph 55 % 0 in
12:33 70.9 °F 52.9 °F 30.1 in SE 6.9 mph 6.9 mph 53 % 0 in
12:38 71.2 °F 53.2 °F 30.1 in ESE 3.5 mph 3.5 mph 53 % 0 in
12:43 71.1 °F 54.1 °F 30 in West 3.5 mph 3.5 mph 55 % 0 in
12:48 71.2 °F 53.8 °F 30 in South 3.5 mph 3.5 mph 54 % 0 in
12:53 71.8 °F 53.2 °F 30 in South 3.5 mph 3.5 mph 52 % 0 in
12:58 70.7 °F 51.6 °F 30.1 in ESE 6.9 mph 6.9 mph 51 % 0 in
13:03 70.2 °F 51.3 °F 30.1 in ESE 5.6 mph 5.6 mph 51 % 0 in
13:08 70 °F 51.1 °F 30.1 in NE 5.8 mph 5.8 mph 51 % 0 in
13:13 71.1 °F 52 °F 30.1 in SSE 3.8 mph 3.8 mph 51 % 0 in
13:18 72.9 °F 53.8 °F 30.1 in SSE 4.6 mph 4.6 mph 51 % 0 in
13:23 73.4 °F 53.1 °F 30.1 in South 2.9 mph 2.9 mph 49 % 0 in
13:28 71.6 °F 51.4 °F 30.1 in South 5.8 mph 5.8 mph 49 % 0 in
13:33 72 °F 51.8 °F 30.1 in SE 4.6 mph 4.6 mph 49 % 0 in
13:38 72.3 °F 52.5 °F 30.1 in SW 1.2 mph   50 % 0 in
13:43 74.1 °F 53.2 °F 30 in South 2.3 mph 2.3 mph 48 % 0 in
13:48 74.7 °F 53.8 °F 30 in ESE 3.6 mph 3.6 mph 48 % 0 in
13:53 73.2 °F 52.3 °F 30 in ESE 4.3 mph 4.3 mph 48 % 0 in
13:58 73.6 °F 52.7 °F 30 in ESE 4.9 mph 4.9 mph 48 % 0 in
14:03 72 °F 52.3 °F 30 in ESE 6 mph 6 mph 50 % 0 in
14:08 71.8 °F 52.7 °F 30 in ENE 9.2 mph 9.2 mph 51 % 0 in
14:13 71.4 °F 52.3 °F 30 in ESE 8.5 mph 8.5 mph 51 % 0 in
14:18 71.2 °F 52.7 °F 30 in ESE 4.6 mph 4.6 mph 52 % 0 in
14:23 72 °F 54 °F 30 in ENE 6.7 mph 6.7 mph 53 % 0 in
14:28 71.1 °F 53.1 °F 30 in ESE 9.2 mph 9.2 mph 53 % 0 in
14:33 71.1 °F 53.1 °F 30 in ESE 2.3 mph 2.3 mph 53 % 0 in
14:38 71.2 °F 53.2 °F 30 in SE 9.2 mph 9.2 mph 53 % 0 in
14:43 71.4 °F 54 °F 30 in ESE 8.1 mph 8.1 mph 54 % 0 in
14:48 71.6 °F 54.1 °F 30 in ENE 7.6 mph 7.6 mph 54 % 0 in
14:53 71.4 °F 54.3 °F 30 in SE 10.4 mph 10.4 mph 55 % 0 in
14:58 71.1 °F 54.1 °F 30 in East 10.4 mph 10.4 mph 55 % 0 in
15:03 71.1 °F 54.1 °F 30 in ESE 8.1 mph 8.1 mph 55 % 0 in
15:08 70.9 °F 54 °F 30 in NE 10.4 mph 10.4 mph 55 % 0 in
15:13 71.4 °F 54.3 °F 30 in ENE 8.7 mph 8.7 mph 55 % 0 in
15:18 72.1 °F 55 °F 30 in East 9.2 mph 9.2 mph 55 % 0 in
15:23 71.4 °F 55.4 °F 30 in NE 10.4 mph 10.4 mph 57 % 0 in
15:28 71.1 °F 55 °F 30 in West 6.9 mph 6.9 mph 57 % 0 in
15:33 70.7 °F 54.7 °F 30 in NNE 10.5 mph 10.5 mph 57 % 0 in
15:38 70.9 °F 54.9 °F 30 in SSE 10.4 mph 10.4 mph 57 % 0 in
15:43 70.7 °F 54.7 °F 30 in ENE 10.4 mph 10.4 mph 57 % 0 in
15:48 70.3 °F 54.3 °F 30 in SE 10.4 mph 10.4 mph 57 % 0 in
15:53 70.2 °F 54.7 °F 30 in ENE 8.1 mph 8.1 mph 58 % 0 in
15:58 70.5 °F 54.5 °F 30 in ESE 8.1 mph 8.1 mph 57 % 0 in
16:00 70.5 °F 54.5 °F 30 in SE 12.5 mph 12.5 mph 57 % 0 in
16:05 70.2 °F 54.1 °F 30 in NNE 8.1 mph 8.1 mph 57 % 0 in
16:10 70.2 °F 54.1 °F 30 in East 6.9 mph 6.9 mph 57 % 0 in
16:15 71.1 °F 55 °F 30 in SE 5.8 mph 5.8 mph 57 % 0 in
16:20 70.9 °F 54.9 °F 30 in SE 4.9 mph 4.9 mph 57 % 0 in
16:25 70.7 °F 54.7 °F 30 in ESE 10.4 mph 10.4 mph 57 % 0 in
16:30 70.3 °F 54.3 °F 30 in ENE 9.2 mph 9.2 mph 57 % 0 in
16:35 70.2 °F 54.1 °F 30 in East 5.8 mph 5.8 mph 57 % 0 in
16:40 69.8 °F 54 °F 30 in ESE 6.9 mph 6.9 mph 57 % 0 in
16:45 69.8 °F 54 °F 30 in ENE 6.9 mph 6.9 mph 57 % 0 in
16:50 69.8 °F 54 °F 30 in NNE 6.9 mph 6.9 mph 57 % 0 in
16:55 69.4 °F 54 °F 30 in East 6.9 mph 6.9 mph 58 % 0 in
17:00 69.4 °F 54 °F 30 in East 5.8 mph 5.8 mph 58 % 0 in
17:05 69.1 °F 53.8 °F 30 in ESE 6.9 mph 6.9 mph 58 % 0 in
17:10 68.5 °F 53.2 °F 30 in NNW 9.2 mph 9.2 mph 58 % 0 in
17:15 68.5 °F 53.6 °F 30 in ESE 11.5 mph 11.5 mph 59 % 0 in
17:21 68.7 °F 53.8 °F 30 in East 5.8 mph 5.8 mph 59 % 0 in
17:26 68.9 °F 54 °F 30 in ESE 8.1 mph 8.1 mph 59 % 0 in
17:31 68.7 °F 53.8 °F 30 in ENE 9.2 mph 9.2 mph 59 % 0 in
17:36 68.7 °F 53.8 °F 30 in ESE 5.8 mph 5.8 mph 59 % 0 in
17:41 68.7 °F 53.8 °F 30 in ENE 8.1 mph 8.1 mph 59 % 0 in
17:46 68.2 °F 53.2 °F 30 in ESE 8.1 mph 8.1 mph 59 % 0 in
17:51 68.2 °F 53.2 °F 30 in ENE 8.1 mph 8.1 mph 59 % 0 in
17:56 67.8 °F 53.4 °F 30 in ENE 5.8 mph 5.8 mph 60 % 0 in
18:02 68 °F 53.1 °F 30 in North 6.9 mph 6.9 mph 59 % 0 in
18:07 67.6 °F 53.2 °F 30 in ESE 5.8 mph 5.8 mph 60 % 0 in
18:12 67.8 °F 53.1 °F 30 in ESE 6.9 mph 6.9 mph 59 % 0 in
18:17 68 °F 52.7 °F 30 in ESE 9.2 mph 9.2 mph 58 % 0 in
18:22 68 °F 52.7 °F 30 in East 5.8 mph 5.8 mph 58 % 0 in
18:27 67.8 °F 53.1 °F 30 in ESE 10 mph 10 mph 59 % 0 in
18:32 67.6 °F 52.9 °F 30 in SSE 8.1 mph 8.1 mph 59 % 0 in
18:37 67.6 °F 52.9 °F 30 in East 5.8 mph 5.8 mph 59 % 0 in
18:42 67.3 °F 52 °F 30 in East 5.8 mph 5.8 mph 58 % 0 in
18:47 67.1 °F 51.8 °F 30 in ESE 5.8 mph 5.8 mph 58 % 0 in
18:52 67.1 °F 51.8 °F 30 in SSE 5.8 mph 5.8 mph 58 % 0 in
18:57 67.1 °F 52.3 °F 30 in SSE 3.5 mph 3.5 mph 59 % 0 in
19:02 67.1 °F 51.8 °F 30 in ESE 3.6 mph 3.6 mph 58 % 0 in
19:07 66.9 °F 51.6 °F 30 in WSW 3.5 mph 3.5 mph 58 % 0 in
19:12 67.1 °F 51.4 °F 30 in SW 3.5 mph 3.5 mph 57 % 0 in
19:17 67.1 °F 50.9 °F 30 in SSW 2.3 mph 2.3 mph 56 % 0 in
19:20 57.7 °F 46 °F 30 in Calm     65 % 0 in
19:22 66.9 °F 50.7 °F 30 in WNW 1.2 mph   56 % 0 in
19:27 66.7 °F 50.5 °F 30 in SW 1.2 mph   56 % 0 in
19:30 57.7 °F 46 °F 30 in Calm     65 % 0 in
19:32 66.7 °F 50.2 °F 30 in West 2.3 mph 2.3 mph 55 % 0 in
19:37 66.6 °F 49.8 °F 30 in WSW 2.3 mph 2.3 mph 55 % 0 in
19:40 57.4 °F 46 °F 30 in Calm     66 % 0 in
19:42 66.6 °F 49.8 °F 30 in South 4.6 mph 4.6 mph 55 % 0 in
19:47 66.4 °F 49.3 °F 30 in SW 3.5 mph 3.5 mph 54 % 0 in
19:50 57 °F 45.9 °F 30 in Calm     66 % 0 in
19:52 66 °F 48.9 °F 30 in WSW 6.4 mph 6.4 mph 54 % 0 in
19:57 65.5 °F 48.4 °F 30 in SW 5.8 mph 5.8 mph 54 % 0 in
20:00 56.7 °F 45.9 °F 30 in Calm     67 % 0 in
20:02 64.9 °F 47.5 °F 30 in West 4.6 mph 4.6 mph 53 % 0 in
20:08 64.8 °F 47.1 °F 30 in SW 4.6 mph 4.6 mph 53 % 0 in
20:10 56.5 °F 45.7 °F 30 in Calm     67 % 0 in
20:13 64.4 °F 46.9 °F 30 in West 3.5 mph 3.5 mph 53 % 0 in
20:18 64.4 °F 46.9 °F 30 in SW 3.5 mph 3.5 mph 53 % 0 in
20:20 56.5 °F 46 °F 30 in Calm     68 % 0 in
20:23 64 °F 46.6 °F 30 in West 2.3 mph 2.3 mph 53 % 0 in
20:28 63.9 °F 46.4 °F 30 in SW 3.5 mph 3.5 mph 53 % 0 in
20:30 56.3 °F 46.2 °F 30 in Calm     69 % 0 in
20:33 63.5 °F 46 °F 30 in SW 3.6 mph 3.6 mph 53 % 0 in
20:38 63.3 °F 45.9 °F 30 in SW 3.5 mph 3.5 mph 53 % 0 in
20:40 56.1 °F 46 °F 30 in Calm     69 % 0 in
20:43 63.1 °F 45.7 °F 30 in SW 3.5 mph 3.5 mph 53 % 0 in
20:48 62.8 °F 45.9 °F 30 in WSW 4.6 mph 4.6 mph 54 % 0 in
20:50 55.8 °F 45.7 °F 30 in NE 1 mph 2 mph 69 % 0 in
20:53 62.6 °F 45.7 °F 30 in WSW 3.5 mph 3.5 mph 54 % 0 in
20:58 62.4 °F 46 °F 30 in WSW 5.8 mph 5.8 mph 55 % 0 in
21:00 55.6 °F 45.7 °F 30 in NE 1 mph 2 mph 69 % 0 in
21:03 62.2 °F 45.9 °F 30 in WSW 4.6 mph 4.6 mph 55 % 0 in
21:08 62.1 °F 45.7 °F 30 in SW 3.5 mph 3.5 mph 55 % 0 in
21:10 55.4 °F 45.9 °F 30 in Calm   1 mph 70 % 0 in
21:13 61.9 °F 46 °F 30 in SW 2 mph 2 mph 56 % 0 in
21:18 61.9 °F 46 °F 30 in SW 2.4 mph 2.4 mph 56 % 0 in
21:20 55 °F 45.3 °F 30 in NNE 1 mph 2 mph 70 % 0 in
21:23 61.7 °F 46.2 °F 30 in West 2.3 mph 2.3 mph 57 % 0 in
21:28 61.5 °F 46 °F 30 in WSW 2.3 mph 2.3 mph 57 % 0 in
21:30 54.7 °F 45.5 °F 30 in NE 1 mph 1 mph 71 % 0 in
21:34 61.5 °F 46 °F 30 in WSW 2.4 mph 2.4 mph 57 % 0 in
21:39 61.3 °F 46.4 °F 30 in SW 2.9 mph 2.9 mph 58 % 0 in
21:40 54.5 °F 45.3 °F 30 in Calm   1 mph 71 % 0 in
21:44 61.2 °F 46.2 °F 30 in WSW 2.4 mph 2.4 mph 58 % 0 in
21:49 61.2 °F 46.8 °F 30 in West 1.2 mph 1.2 mph 59 % 0 in
21:50 61.2 °F 46.8 °F 30 in West 1.2 mph   59 % 0 in
21:55 61 °F 46.6 °F 30 in WSW 2.3 mph 2.3 mph 59 % 0 in
22:00 60.8 °F 46.4 °F 30 in West 1.6 mph 1.6 mph 59 % 0 in
22:05 60.8 °F 46.8 °F 30 in WSW 1.2 mph   60 % 0 in
22:10 60.8 °F 46.8 °F 30 in Calm     60 % 0 in
22:15 60.6 °F 46.8 °F 30 in Calm     60 % 0 in
22:20 60.6 °F 47.1 °F 30 in Calm     61 % 0 in
22:25 60.4 °F 46.9 °F 30 in Calm     61 % 0 in
22:30 60.3 °F 46.8 °F 30 in Calm     61 % 0 in
22:35 60.1 °F 46.6 °F 30 in Calm     61 % 0 in
22:40 60.1 °F 46.6 °F 30 in Calm     61 % 0 in
22:45 59.9 °F 46.8 °F 30 in Calm     62 % 0 in
22:50 59.5 °F 46.6 °F 30 in Calm     62 % 0 in
22:55 59.5 °F 46.6 °F 30 in Calm     62 % 0 in
23:00 59.4 °F 46.2 °F 30 in Calm     62 % 0 in
23:05 59.4 °F 46.8 °F 30 in Calm     63 % 0 in
23:10 59.2 °F 46.6 °F 30 in Calm     63 % 0 in
23:15 59 °F 46.4 °F 30 in Calm     63 % 0 in
23:20 59.2 °F 46.9 °F 30 in Calm     64 % 0 in
23:25 59 °F 46.8 °F 30 in Calm     64 % 0 in
23:30 59 °F 46.8 °F 30 in Calm     64 % 0 in
23:35 58.8 °F 46.8 °F 30 in Calm     64 % 0 in
23:40 58.5 °F 46.2 °F 30 in Calm     64 % 0 in
23:45 58.5 °F 46.2 °F 30 in Calm     64 % 0 in
23:50 58.3 °F 46.2 °F 30 in Calm     64 % 0 in
23:55 58.3 °F 46.2 °F 30 in Calm     64 % 0 in
Meteo Sesrovires
Elogis d' Weather Underground - 3.75 mb

Guio original per  Jim McMurry - jmcmurry@mwt.net Adaptat per a la plantilla per  Wim van der Kuil - Leuven-Template.eu

Trobareu la nostra informacio del temps tambe a:

Weather Underground

AWEKAS